sensor_id;sensor_type;location;lat;lon;timestamp;temperature;humidity
4594;DHT22;2309;51.674;8.368;2023-08-01T01:21:27;15.80;99.90
4594;DHT22;2309;51.674;8.368;2023-08-01T01:23:54;15.90;99.90
4594;DHT22;2309;51.674;8.368;2023-08-01T01:26:21;15.90;99.90
4594;DHT22;2309;51.674;8.368;2023-08-01T01:31:15;15.90;99.90
4594;DHT22;2309;51.674;8.368;2023-08-01T01:36:09;15.90;99.90
4594;DHT22;2309;51.674;8.368;2023-08-01T05:07:58;15.70;99.90
4594;DHT22;2309;51.674;8.368;2023-08-01T05:54:52;15.80;99.90
4594;DHT22;2309;51.674;8.368;2023-08-01T05:57:20;15.80;99.90
4594;DHT22;2309;51.674;8.368;2023-08-01T05:59:51;15.70;99.90
4594;DHT22;2309;51.674;8.368;2023-08-01T06:02:17;15.70;99.90
4594;DHT22;2309;51.674;8.368;2023-08-01T06:07:11;15.70;99.90
4594;DHT22;2309;51.674;8.368;2023-08-01T06:09:38;15.70;99.90
4594;DHT22;2309;51.674;8.368;2023-08-01T06:12:05;15.60;99.90
4594;DHT22;2309;51.674;8.368;2023-08-01T06:14:34;15.70;99.90
4594;DHT22;2309;51.674;8.368;2023-08-01T06:17:01;15.80;99.90
4594;DHT22;2309;51.674;8.368;2023-08-01T06:19:29;15.80;99.90
4594;DHT22;2309;51.674;8.368;2023-08-01T06:21:56;15.70;99.90
4594;DHT22;2309;51.674;8.368;2023-08-01T06:55:32;16.10;99.90
4594;DHT22;2309;51.674;8.368;2023-08-01T06:58:00;16.10;99.90
4594;DHT22;2309;51.674;8.368;2023-08-01T07:05:24;16.40;99.90
4594;DHT22;2309;51.674;8.368;2023-08-01T07:08:06;16.50;99.90
4594;DHT22;2309;51.674;8.368;2023-08-01T09:06:25;18.20;26.30
4594;DHT22;2309;51.674;8.368;2023-08-01T10:01:17;18.20;99.90
4594;DHT22;2309;51.674;8.368;2023-08-01T11:01:43;21.00;1.00
4594;DHT22;2309;51.674;8.368;2023-08-01T11:04:16;21.10;1.00
4594;DHT22;2309;51.674;8.368;2023-08-01T11:17:30;20.90;1.00
4594;DHT22;2309;51.674;8.368;2023-08-01T11:22:33;20.50;1.00
4594;DHT22;2309;51.674;8.368;2023-08-01T11:32:45;20.50;1.00
4594;DHT22;2309;51.674;8.368;2023-08-01T11:35:17;20.50;1.00
4594;DHT22;2309;51.674;8.368;2023-08-01T11:37:44;20.20;1.00
4594;DHT22;2309;51.674;8.368;2023-08-01T11:50:01;22.50;1.00
4594;DHT22;2309;51.674;8.368;2023-08-01T11:59:55;23.20;1.00
4594;DHT22;2309;51.674;8.368;2023-08-01T12:02:25;22.20;1.00
4594;DHT22;2309;51.674;8.368;2023-08-01T12:07:18;19.60;1.00
4594;DHT22;2309;51.674;8.368;2023-08-01T12:09:54;17.90;1.00
4594;DHT22;2309;51.674;8.368;2023-08-01T12:12:13;18.50;99.90
4594;DHT22;2309;51.674;8.368;2023-08-01T12:14:41;18.10;99.90
4594;DHT22;2309;51.674;8.368;2023-08-01T12:17:09;17.90;99.90
4594;DHT22;2309;51.674;8.368;2023-08-01T12:19:36;18.10;99.90
4594;DHT22;2309;51.674;8.368;2023-08-01T12:22:06;19.40;99.90
4594;DHT22;2309;51.674;8.368;2023-08-01T12:24:35;19.90;99.90
4594;DHT22;2309;51.674;8.368;2023-08-01T12:27:06;19.70;99.90
4594;DHT22;2309;51.674;8.368;2023-08-01T12:29:33;19.50;99.90
4594;DHT22;2309;51.674;8.368;2023-08-01T12:32:02;19.30;99.90
4594;DHT22;2309;51.674;8.368;2023-08-01T12:34:30;20.20;99.90
4594;DHT22;2309;51.674;8.368;2023-08-01T12:36:57;19.80;47.20
4594;DHT22;2309;51.674;8.368;2023-08-01T12:39:24;19.90;81.10
4594;DHT22;2309;51.674;8.368;2023-08-01T12:42:05;19.80;15.30
4594;DHT22;2309;51.674;8.368;2023-08-01T12:44:24;20.30;1.00
4594;DHT22;2309;51.674;8.368;2023-08-01T12:46:53;21.40;1.00
4594;DHT22;2309;51.674;8.368;2023-08-01T12:49:20;21.70;1.00
4594;DHT22;2309;51.674;8.368;2023-08-01T12:51:48;21.30;1.00
4594;DHT22;2309;51.674;8.368;2023-08-01T12:54:15;21.50;1.00
4594;DHT22;2309;51.674;8.368;2023-08-01T12:56:43;21.30;1.00
4594;DHT22;2309;51.674;8.368;2023-08-01T12:59:09;21.90;1.00
4594;DHT22;2309;51.674;8.368;2023-08-01T13:01:38;21.60;1.00
4594;DHT22;2309;51.674;8.368;2023-08-01T13:04:05;21.90;1.00
4594;DHT22;2309;51.674;8.368;2023-08-01T13:06:32;21.50;1.00
4594;DHT22;2309;51.674;8.368;2023-08-01T13:09:00;21.80;1.00
4594;DHT22;2309;51.674;8.368;2023-08-01T13:11:28;22.10;1.00
4594;DHT22;2309;51.674;8.368;2023-08-01T13:13:57;22.10;1.00
4594;DHT22;2309;51.674;8.368;2023-08-01T13:16:30;21.50;1.00
4594;DHT22;2309;51.674;8.368;2023-08-01T13:21:30;22.70;1.00
4594;DHT22;2309;51.674;8.368;2023-08-01T13:23:57;21.70;1.00
4594;DHT22;2309;51.674;8.368;2023-08-01T13:26:26;21.90;1.00
4594;DHT22;2309;51.674;8.368;2023-08-01T13:28:53;22.60;1.00
4594;DHT22;2309;51.674;8.368;2023-08-01T13:33:46;23.70;1.00
4594;DHT22;2309;51.674;8.368;2023-08-01T13:36:13;23.70;1.00
4594;DHT22;2309;51.674;8.368;2023-08-01T13:43:51;25.80;1.00
4594;DHT22;2309;51.674;8.368;2023-08-01T13:46:19;25.20;1.00
4594;DHT22;2309;51.674;8.368;2023-08-01T13:51:13;22.30;1.00
4594;DHT22;2309;51.674;8.368;2023-08-01T13:56:08;21.90;1.00
4594;DHT22;2309;51.674;8.368;2023-08-01T13:58:37;22.10;1.00
4594;DHT22;2309;51.674;8.368;2023-08-01T14:01:04;23.20;1.00
4594;DHT22;2309;51.674;8.368;2023-08-01T14:06:15;25.20;1.00
4594;DHT22;2309;51.674;8.368;2023-08-01T14:08:41;25.20;1.00
4594;DHT22;2309;51.674;8.368;2023-08-01T14:13:41;26.20;1.00
4594;DHT22;2309;51.674;8.368;2023-08-01T14:16:07;25.60;1.00
4594;DHT22;2309;51.674;8.368;2023-08-01T14:18:34;25.70;1.00
4594;DHT22;2309;51.674;8.368;2023-08-01T14:21:05;25.80;1.00
4594;DHT22;2309;51.674;8.368;2023-08-01T14:26:00;25.00;1.00
4594;DHT22;2309;51.674;8.368;2023-08-01T14:28:27;25.50;1.00
4594;DHT22;2309;51.674;8.368;2023-08-01T14:30:56;25.00;1.00
4594;DHT22;2309;51.674;8.368;2023-08-01T14:33:24;25.40;1.00
4594;DHT22;2309;51.674;8.368;2023-08-01T14:35:51;24.30;1.00
4594;DHT22;2309;51.674;8.368;2023-08-01T14:38:26;23.10;1.00
4594;DHT22;2309;51.674;8.368;2023-08-01T14:41:01;23.00;1.00
4594;DHT22;2309;51.674;8.368;2023-08-01T14:43:24;23.70;1.00
4594;DHT22;2309;51.674;8.368;2023-08-01T14:48:20;24.60;1.00
4594;DHT22;2309;51.674;8.368;2023-08-01T14:50:48;25.10;1.00
4594;DHT22;2309;51.674;8.368;2023-08-01T14:53:15;25.50;1.00
4594;DHT22;2309;51.674;8.368;2023-08-01T14:55:42;26.10;1.00
